sensor_id;sensor_type;location;lat;lon;timestamp;P1;durP1;ratioP1;P2;durP2;ratioP2
4698;SDS011;33708;49.466;11.176;2023-01-26T00:00:44;33.20;;;17.13;;
4698;SDS011;33708;49.466;11.176;2023-01-26T00:03:10;36.20;;;16.17;;
4698;SDS011;33708;49.466;11.176;2023-01-26T00:05:36;38.13;;;17.40;;
4698;SDS011;33708;49.466;11.176;2023-01-26T00:08:02;38.47;;;17.40;;
4698;SDS011;33708;49.466;11.176;2023-01-26T00:10:28;34.50;;;16.90;;
4698;SDS011;33708;49.466;11.176;2023-01-26T00:12:53;34.40;;;17.40;;
4698;SDS011;33708;49.466;11.176;2023-01-26T00:15:19;35.30;;;17.00;;
4698;SDS011;33708;49.466;11.176;2023-01-26T00:17:44;37.47;;;17.67;;
4698;SDS011;33708;49.466;11.176;2023-01-26T00:20:10;35.90;;;17.03;;
4698;SDS011;33708;49.466;11.176;2023-01-26T00:22:36;38.43;;;17.20;;
4698;SDS011;33708;49.466;11.176;2023-01-26T00:25:02;36.37;;;16.47;;
4698;SDS011;33708;49.466;11.176;2023-01-26T00:27:27;35.33;;;17.37;;
4698;SDS011;33708;49.466;11.176;2023-01-26T00:29:53;35.00;;;16.63;;
4698;SDS011;33708;49.466;11.176;2023-01-26T00:32:19;34.50;;;16.70;;
4698;SDS011;33708;49.466;11.176;2023-01-26T00:34:44;40.60;;;17.83;;
4698;SDS011;33708;49.466;11.176;2023-01-26T00:37:10;33.17;;;15.27;;
4698;SDS011;33708;49.466;11.176;2023-01-26T00:39:35;32.00;;;16.70;;
4698;SDS011;33708;49.466;11.176;2023-01-26T00:42:01;32.77;;;16.57;;
4698;SDS011;33708;49.466;11.176;2023-01-26T00:44:37;32.87;;;16.03;;
4698;SDS011;33708;49.466;11.176;2023-01-26T00:47:07;38.13;;;17.57;;
4698;SDS011;33708;49.466;11.176;2023-01-26T00:49:34;38.87;;;17.73;;
4698;SDS011;33708;49.466;11.176;2023-01-26T00:52:00;36.43;;;16.67;;
4698;SDS011;33708;49.466;11.176;2023-01-26T00:54:26;36.43;;;16.70;;
4698;SDS011;33708;49.466;11.176;2023-01-26T00:56:52;36.27;;;17.40;;
4698;SDS011;33708;49.466;11.176;2023-01-26T00:59:18;41.73;;;18.43;;
4698;SDS011;33708;49.466;11.176;2023-01-26T01:01:44;36.27;;;17.57;;
4698;SDS011;33708;49.466;11.176;2023-01-26T01:04:09;38.03;;;18.90;;
4698;SDS011;33708;49.466;11.176;2023-01-26T01:06:35;37.10;;;16.30;;
4698;SDS011;33708;49.466;11.176;2023-01-26T01:09:01;35.97;;;17.80;;
4698;SDS011;33708;49.466;11.176;2023-01-26T01:11:26;41.27;;;17.73;;
4698;SDS011;33708;49.466;11.176;2023-01-26T01:13:52;38.27;;;17.30;;
4698;SDS011;33708;49.466;11.176;2023-01-26T01:16:18;38.70;;;19.10;;
4698;SDS011;33708;49.466;11.176;2023-01-26T01:18:44;38.50;;;18.63;;
4698;SDS011;33708;49.466;11.176;2023-01-26T01:21:10;37.47;;;18.00;;
4698;SDS011;33708;49.466;11.176;2023-01-26T01:23:41;38.70;;;17.97;;
4698;SDS011;33708;49.466;11.176;2023-01-26T01:26:08;37.97;;;18.60;;
4698;SDS011;33708;49.466;11.176;2023-01-26T01:28:34;41.57;;;19.07;;
4698;SDS011;33708;49.466;11.176;2023-01-26T01:31:04;41.13;;;17.77;;
4698;SDS011;33708;49.466;11.176;2023-01-26T01:33:34;38.23;;;19.10;;
4698;SDS011;33708;49.466;11.176;2023-01-26T01:36:04;40.33;;;19.27;;
4698;SDS011;33708;49.466;11.176;2023-01-26T01:38:31;41.27;;;19.73;;
4698;SDS011;33708;49.466;11.176;2023-01-26T01:40:56;46.63;;;21.50;;
4698;SDS011;33708;49.466;11.176;2023-01-26T01:43:22;45.13;;;20.23;;
4698;SDS011;33708;49.466;11.176;2023-01-26T01:45:50;35.10;;;17.37;;
4698;SDS011;33708;49.466;11.176;2023-01-26T01:48:24;36.70;;;17.60;;
4698;SDS011;33708;49.466;11.176;2023-01-26T01:51:03;37.57;;;18.37;;
4698;SDS011;33708;49.466;11.176;2023-01-26T01:53:33;41.17;;;19.30;;
4698;SDS011;33708;49.466;11.176;2023-01-26T01:56:07;43.73;;;21.43;;
4698;SDS011;33708;49.466;11.176;2023-01-26T01:58:37;36.33;;;18.67;;
4698;SDS011;33708;49.466;11.176;2023-01-26T02:01:06;45.37;;;20.83;;
4698;SDS011;33708;49.466;11.176;2023-01-26T02:03:33;38.00;;;17.80;;
4698;SDS011;33708;49.466;11.176;2023-01-26T02:08:55;40.63;;;19.67;;
4698;SDS011;33708;49.466;11.176;2023-01-26T02:11:23;49.17;;;20.80;;
4698;SDS011;33708;49.466;11.176;2023-01-26T02:13:56;39.27;;;18.50;;
4698;SDS011;33708;49.466;11.176;2023-01-26T02:16:23;41.40;;;18.17;;
4698;SDS011;33708;49.466;11.176;2023-01-26T02:18:49;39.27;;;18.80;;
4698;SDS011;33708;49.466;11.176;2023-01-26T02:21:18;46.77;;;20.97;;
4698;SDS011;33708;49.466;11.176;2023-01-26T02:26:24;45.23;;;19.73;;
4698;SDS011;33708;49.466;11.176;2023-01-26T02:28:52;48.93;;;22.63;;
4698;SDS011;33708;49.466;11.176;2023-01-26T02:31:18;46.50;;;21.20;;
4698;SDS011;33708;49.466;11.176;2023-01-26T02:33:46;42.10;;;21.23;;
4698;SDS011;33708;49.466;11.176;2023-01-26T02:36:19;41.70;;;19.83;;
4698;SDS011;33708;49.466;11.176;2023-01-26T02:39:03;40.30;;;19.87;;
4698;SDS011;33708;49.466;11.176;2023-01-26T02:41:52;42.17;;;18.87;;
4698;SDS011;33708;49.466;11.176;2023-01-26T02:44:37;42.40;;;19.80;;
4698;SDS011;33708;49.466;11.176;2023-01-26T02:47:15;47.93;;;19.80;;
4698;SDS011;33708;49.466;11.176;2023-01-26T02:49:42;38.80;;;19.00;;
4698;SDS011;33708;49.466;11.176;2023-01-26T02:52:11;49.20;;;22.67;;
4698;SDS011;33708;49.466;11.176;2023-01-26T02:54:37;54.37;;;24.43;;
4698;SDS011;33708;49.466;11.176;2023-01-26T02:57:21;51.37;;;21.47;;
4698;SDS011;33708;49.466;11.176;2023-01-26T02:59:47;43.90;;;20.00;;
4698;SDS011;33708;49.466;11.176;2023-01-26T03:02:13;43.77;;;19.97;;
4698;SDS011;33708;49.466;11.176;2023-01-26T03:04:39;48.07;;;22.93;;
4698;SDS011;33708;49.466;11.176;2023-01-26T03:07:05;44.17;;;19.03;;
4698;SDS011;33708;49.466;11.176;2023-01-26T03:09:30;43.97;;;20.37;;
4698;SDS011;33708;49.466;11.176;2023-01-26T03:11:56;45.07;;;18.30;;
4698;SDS011;33708;49.466;11.176;2023-01-26T03:14:22;46.53;;;20.90;;
4698;SDS011;33708;49.466;11.176;2023-01-26T03:16:47;40.50;;;19.03;;
4698;SDS011;33708;49.466;11.176;2023-01-26T03:19:13;39.93;;;20.13;;
4698;SDS011;33708;49.466;11.176;2023-01-26T03:21:58;42.03;;;19.03;;
4698;SDS011;33708;49.466;11.176;2023-01-26T03:24:43;38.70;;;17.03;;
4698;SDS011;33708;49.466;11.176;2023-01-26T03:27:28;40.17;;;18.47;;
4698;SDS011;33708;49.466;11.176;2023-01-26T03:30:05;43.40;;;18.93;;
4698;SDS011;33708;49.466;11.176;2023-01-26T03:32:31;43.87;;;19.57;;
4698;SDS011;33708;49.466;11.176;2023-01-26T03:34:56;43.80;;;20.27;;
4698;SDS011;33708;49.466;11.176;2023-01-26T03:37:22;43.83;;;20.83;;
4698;SDS011;33708;49.466;11.176;2023-01-26T03:39:51;50.00;;;20.67;;
4698;SDS011;33708;49.466;11.176;2023-01-26T03:42:35;45.47;;;18.53;;
4698;SDS011;33708;49.466;11.176;2023-01-26T03:45:20;42.40;;;19.10;;
4698;SDS011;33708;49.466;11.176;2023-01-26T03:48:06;40.47;;;18.50;;
4698;SDS011;33708;49.466;11.176;2023-01-26T03:50:51;46.70;;;20.97;;
4698;SDS011;33708;49.466;11.176;2023-01-26T03:53:36;45.80;;;20.20;;
4698;SDS011;33708;49.466;11.176;2023-01-26T03:56:20;46.40;;;21.10;;
4698;SDS011;33708;49.466;11.176;2023-01-26T03:58:49;41.50;;;19.70;;
4698;SDS011;33708;49.466;11.176;2023-01-26T04:01:17;41.17;;;19.33;;
4698;SDS011;33708;49.466;11.176;2023-01-26T04:03:48;42.33;;;18.47;;
4698;SDS011;33708;49.466;11.176;2023-01-26T04:06:34;37.90;;;17.03;;
4698;SDS011;33708;49.466;11.176;2023-01-26T04:09:19;38.83;;;18.23;;
4698;SDS011;33708;49.466;11.176;2023-01-26T04:11:45;47.20;;;18.00;;
4698;SDS011;33708;49.466;11.176;2023-01-26T04:14:11;38.73;;;17.77;;
4698;SDS011;33708;49.466;11.176;2023-01-26T04:16:57;38.30;;;17.63;;
4698;SDS011;33708;49.466;11.176;2023-01-26T04:19:42;39.07;;;16.17;;
4698;SDS011;33708;49.466;11.176;2023-01-26T04:22:26;38.60;;;17.37;;
4698;SDS011;33708;49.466;11.176;2023-01-26T04:24:52;39.47;;;17.03;;
4698;SDS011;33708;49.466;11.176;2023-01-26T04:27:18;35.53;;;15.77;;
4698;SDS011;33708;49.466;11.176;2023-01-26T04:29:43;42.00;;;17.77;;
4698;SDS011;33708;49.466;11.176;2023-01-26T04:32:09;36.80;;;17.07;;
4698;SDS011;33708;49.466;11.176;2023-01-26T04:34:34;41.83;;;17.70;;
4698;SDS011;33708;49.466;11.176;2023-01-26T04:37:00;39.93;;;16.97;;
4698;SDS011;33708;49.466;11.176;2023-01-26T04:39:25;38.37;;;15.83;;
4698;SDS011;33708;49.466;11.176;2023-01-26T04:41:51;37.10;;;16.70;;
4698;SDS011;33708;49.466;11.176;2023-01-26T04:44:16;32.90;;;14.90;;
4698;SDS011;33708;49.466;11.176;2023-01-26T04:46:42;43.03;;;18.20;;
4698;SDS011;33708;49.466;11.176;2023-01-26T04:49:08;32.70;;;16.20;;
4698;SDS011;33708;49.466;11.176;2023-01-26T04:51:34;35.20;;;16.93;;
4698;SDS011;33708;49.466;11.176;2023-01-26T04:53:59;36.73;;;17.77;;
4698;SDS011;33708;49.466;11.176;2023-01-26T04:56:27;41.43;;;18.90;;
4698;SDS011;33708;49.466;11.176;2023-01-26T04:58:55;36.73;;;16.70;;
4698;SDS011;33708;49.466;11.176;2023-01-26T05:01:22;45.20;;;20.00;;
4698;SDS011;33708;49.466;11.176;2023-01-26T05:03:48;36.27;;;17.27;;
4698;SDS011;33708;49.466;11.176;2023-01-26T05:06:14;37.43;;;17.60;;
4698;SDS011;33708;49.466;11.176;2023-01-26T05:08:40;41.33;;;19.27;;
4698;SDS011;33708;49.466;11.176;2023-01-26T05:11:06;34.10;;;15.10;;
4698;SDS011;33708;49.466;11.176;2023-01-26T05:13:32;37.13;;;16.47;;
4698;SDS011;33708;49.466;11.176;2023-01-26T05:16:00;32.13;;;16.27;;
4698;SDS011;33708;49.466;11.176;2023-01-26T05:18:26;38.67;;;17.53;;
4698;SDS011;33708;49.466;11.176;2023-01-26T05:20:52;35.30;;;15.37;;
4698;SDS011;33708;49.466;11.176;2023-01-26T05:23:18;35.87;;;16.33;;
4698;SDS011;33708;49.466;11.176;2023-01-26T05:25:43;32.53;;;15.40;;
4698;SDS011;33708;49.466;11.176;2023-01-26T05:28:09;34.37;;;15.87;;
4698;SDS011;33708;49.466;11.176;2023-01-26T05:30:34;32.00;;;15.60;;
4698;SDS011;33708;49.466;11.176;2023-01-26T05:33:00;43.67;;;18.67;;
4698;SDS011;33708;49.466;11.176;2023-01-26T05:35:30;37.60;;;17.70;;
4698;SDS011;33708;49.466;11.176;2023-01-26T05:37:55;40.37;;;17.23;;
4698;SDS011;33708;49.466;11.176;2023-01-26T05:40:21;37.70;;;18.90;;
4698;SDS011;33708;49.466;11.176;2023-01-26T05:42:47;43.17;;;20.30;;
4698;SDS011;33708;49.466;11.176;2023-01-26T05:45:12;36.80;;;17.80;;
4698;SDS011;33708;49.466;11.176;2023-01-26T05:47:38;39.70;;;17.20;;
4698;SDS011;33708;49.466;11.176;2023-01-26T05:50:04;37.67;;;16.77;;
4698;SDS011;33708;49.466;11.176;2023-01-26T05:52:31;41.30;;;18.53;;
4698;SDS011;33708;49.466;11.176;2023-01-26T05:54:56;36.30;;;16.90;;
4698;SDS011;33708;49.466;11.176;2023-01-26T05:57:22;41.10;;;18.67;;
4698;SDS011;33708;49.466;11.176;2023-01-26T05:59:48;37.73;;;19.57;;
4698;SDS011;33708;49.466;11.176;2023-01-26T06:02:13;40.53;;;17.87;;
4698;SDS011;33708;49.466;11.176;2023-01-26T06:04:39;36.13;;;15.70;;
4698;SDS011;33708;49.466;11.176;2023-01-26T06:07:04;34.67;;;15.50;;
4698;SDS011;33708;49.466;11.176;2023-01-26T06:09:30;37.47;;;15.37;;
4698;SDS011;33708;49.466;11.176;2023-01-26T06:11:56;32.77;;;15.80;;
4698;SDS011;33708;49.466;11.176;2023-01-26T06:14:21;32.17;;;16.00;;
4698;SDS011;33708;49.466;11.176;2023-01-26T06:16:47;32.60;;;15.97;;
4698;SDS011;33708;49.466;11.176;2023-01-26T06:19:13;43.60;;;17.13;;
4698;SDS011;33708;49.466;11.176;2023-01-26T06:21:39;35.07;;;16.80;;
4698;SDS011;33708;49.466;11.176;2023-01-26T06:24:04;32.77;;;15.67;;
4698;SDS011;33708;49.466;11.176;2023-01-26T06:26:30;31.03;;;14.97;;
4698;SDS011;33708;49.466;11.176;2023-01-26T06:28:56;32.97;;;14.67;;
4698;SDS011;33708;49.466;11.176;2023-01-26T06:31:21;34.87;;;14.97;;
4698;SDS011;33708;49.466;11.176;2023-01-26T06:33:48;38.00;;;15.80;;
4698;SDS011;33708;49.466;11.176;2023-01-26T06:36:15;41.67;;;19.40;;
4698;SDS011;33708;49.466;11.176;2023-01-26T06:38:44;36.77;;;16.83;;
4698;SDS011;33708;49.466;11.176;2023-01-26T06:41:11;36.30;;;18.07;;
4698;SDS011;33708;49.466;11.176;2023-01-26T06:43:36;36.27;;;16.40;;
4698;SDS011;33708;49.466;11.176;2023-01-26T06:46:02;42.10;;;19.83;;
4698;SDS011;33708;49.466;11.176;2023-01-26T06:48:30;33.20;;;15.57;;
4698;SDS011;33708;49.466;11.176;2023-01-26T06:53:54;30.53;;;14.10;;
4698;SDS011;33708;49.466;11.176;2023-01-26T06:56:21;36.27;;;16.03;;
4698;SDS011;33708;49.466;11.176;2023-01-26T06:58:47;32.77;;;15.70;;
4698;SDS011;33708;49.466;11.176;2023-01-26T07:01:17;34.80;;;17.20;;
4698;SDS011;33708;49.466;11.176;2023-01-26T07:03:46;31.60;;;15.87;;
4698;SDS011;33708;49.466;11.176;2023-01-26T07:06:12;34.77;;;16.83;;
4698;SDS011;33708;49.466;11.176;2023-01-26T07:08:38;34.80;;;16.37;;
4698;SDS011;33708;49.466;11.176;2023-01-26T07:11:04;31.83;;;15.73;;
4698;SDS011;33708;49.466;11.176;2023-01-26T07:13:31;36.30;;;15.90;;
4698;SDS011;33708;49.466;11.176;2023-01-26T07:16:00;31.73;;;15.10;;
4698;SDS011;33708;49.466;11.176;2023-01-26T07:18:26;32.97;;;14.03;;
4698;SDS011;33708;49.466;11.176;2023-01-26T07:20:52;28.70;;;14.73;;
4698;SDS011;33708;49.466;11.176;2023-01-26T07:23:17;31.07;;;13.60;;
4698;SDS011;33708;49.466;11.176;2023-01-26T07:25:43;28.70;;;14.50;;
4698;SDS011;33708;49.466;11.176;2023-01-26T07:28:08;32.53;;;15.50;;
4698;SDS011;33708;49.466;11.176;2023-01-26T07:30:34;39.07;;;16.60;;
4698;SDS011;33708;49.466;11.176;2023-01-26T07:33:00;31.07;;;15.40;;
4698;SDS011;33708;49.466;11.176;2023-01-26T07:35:26;28.60;;;13.40;;
4698;SDS011;33708;49.466;11.176;2023-01-26T07:37:54;32.53;;;14.67;;
4698;SDS011;33708;49.466;11.176;2023-01-26T07:40:22;30.20;;;13.60;;
4698;SDS011;33708;49.466;11.176;2023-01-26T07:42:47;25.40;;;12.47;;
4698;SDS011;33708;49.466;11.176;2023-01-26T07:45:13;27.63;;;13.27;;
4698;SDS011;33708;49.466;11.176;2023-01-26T07:47:41;30.17;;;13.57;;
4698;SDS011;33708;49.466;11.176;2023-01-26T07:50:08;28.73;;;12.90;;
4698;SDS011;33708;49.466;11.176;2023-01-26T07:52:35;32.93;;;15.30;;
4698;SDS011;33708;49.466;11.176;2023-01-26T07:55:02;27.53;;;14.20;;
4698;SDS011;33708;49.466;11.176;2023-01-26T07:57:28;31.50;;;14.10;;
4698;SDS011;33708;49.466;11.176;2023-01-26T07:59:54;30.20;;;14.50;;
4698;SDS011;33708;49.466;11.176;2023-01-26T08:02:19;26.70;;;12.30;;
4698;SDS011;33708;49.466;11.176;2023-01-26T08:04:45;30.70;;;14.37;;
4698;SDS011;33708;49.466;11.176;2023-01-26T08:07:11;28.50;;;14.47;;
4698;SDS011;33708;49.466;11.176;2023-01-26T08:09:37;35.23;;;16.13;;
4698;SDS011;33708;49.466;11.176;2023-01-26T08:12:02;35.80;;;17.23;;
4698;SDS011;33708;49.466;11.176;2023-01-26T08:14:28;35.57;;;16.87;;
4698;SDS011;33708;49.466;11.176;2023-01-26T08:16:53;30.77;;;14.87;;
4698;SDS011;33708;49.466;11.176;2023-01-26T08:19:19;30.43;;;14.80;;
4698;SDS011;33708;49.466;11.176;2023-01-26T08:21:45;36.40;;;16.77;;
4698;SDS011;33708;49.466;11.176;2023-01-26T08:24:11;29.33;;;12.90;;
4698;SDS011;33708;49.466;11.176;2023-01-26T08:26:36;29.57;;;14.83;;
4698;SDS011;33708;49.466;11.176;2023-01-26T08:29:02;27.27;;;12.90;;
4698;SDS011;33708;49.466;11.176;2023-01-26T08:31:28;29.43;;;13.83;;
4698;SDS011;33708;49.466;11.176;2023-01-26T08:33:54;28.00;;;13.53;;
4698;SDS011;33708;49.466;11.176;2023-01-26T08:36:20;36.40;;;14.53;;
4698;SDS011;33708;49.466;11.176;2023-01-26T08:38:47;34.13;;;16.37;;
4698;SDS011;33708;49.466;11.176;2023-01-26T08:41:13;26.10;;;13.13;;
4698;SDS011;33708;49.466;11.176;2023-01-26T08:43:38;40.67;;;15.60;;
4698;SDS011;33708;49.466;11.176;2023-01-26T08:46:04;34.40;;;17.13;;
4698;SDS011;33708;49.466;11.176;2023-01-26T08:48:30;38.47;;;14.73;;
4698;SDS011;33708;49.466;11.176;2023-01-26T08:51:00;34.93;;;14.57;;
4698;SDS011;33708;49.466;11.176;2023-01-26T08:53:31;29.60;;;13.40;;
4698;SDS011;33708;49.466;11.176;2023-01-26T08:56:02;35.73;;;13.33;;
4698;SDS011;33708;49.466;11.176;2023-01-26T08:58:29;32.03;;;12.83;;
4698;SDS011;33708;49.466;11.176;2023-01-26T09:00:55;29.13;;;13.57;;
4698;SDS011;33708;49.466;11.176;2023-01-26T09:03:21;26.50;;;11.60;;
4698;SDS011;33708;49.466;11.176;2023-01-26T09:05:46;34.63;;;14.93;;
4698;SDS011;33708;49.466;11.176;2023-01-26T09:08:12;24.90;;;12.63;;
4698;SDS011;33708;49.466;11.176;2023-01-26T09:10:38;24.40;;;11.87;;
4698;SDS011;33708;49.466;11.176;2023-01-26T09:13:04;23.60;;;11.53;;
4698;SDS011;33708;49.466;11.176;2023-01-26T09:15:30;27.10;;;11.00;;
4698;SDS011;33708;49.466;11.176;2023-01-26T09:17:55;25.47;;;11.53;;
4698;SDS011;33708;49.466;11.176;2023-01-26T09:20:21;30.63;;;12.60;;
4698;SDS011;33708;49.466;11.176;2023-01-26T09:22:47;28.43;;;11.87;;
4698;SDS011;33708;49.466;11.176;2023-01-26T09:25:13;26.00;;;12.53;;
4698;SDS011;33708;49.466;11.176;2023-01-26T09:27:39;24.80;;;10.53;;
4698;SDS011;33708;49.466;11.176;2023-01-26T09:30:05;30.10;;;11.20;;
4698;SDS011;33708;49.466;11.176;2023-01-26T09:32:32;30.37;;;13.03;;
4698;SDS011;33708;49.466;11.176;2023-01-26T09:34:57;24.20;;;11.00;;
4698;SDS011;33708;49.466;11.176;2023-01-26T09:37:23;23.87;;;9.30;;
4698;SDS011;33708;49.466;11.176;2023-01-26T09:39:49;27.13;;;11.23;;
4698;SDS011;33708;49.466;11.176;2023-01-26T09:51:08;25.83;;;11.10;;
4698;SDS011;33708;49.466;11.176;2023-01-26T09:53:44;24.00;;;12.13;;
4698;SDS011;33708;49.466;11.176;2023-01-26T09:56:17;23.80;;;10.47;;
4698;SDS011;33708;49.466;11.176;2023-01-26T09:58:49;23.33;;;10.90;;
4698;SDS011;33708;49.466;11.176;2023-01-26T10:02:03;20.30;;;8.80;;
4698;SDS011;33708;49.466;11.176;2023-01-26T10:07:00;23.50;;;11.20;;
4698;SDS011;33708;49.466;11.176;2023-01-26T10:09:30;23.80;;;11.60;;
4698;SDS011;33708;49.466;11.176;2023-01-26T10:14:51;26.17;;;13.50;;
4698;SDS011;33708;49.466;11.176;2023-01-26T10:17:19;20.40;;;9.30;;
4698;SDS011;33708;49.466;11.176;2023-01-26T10:19:58;26.20;;;12.03;;
4698;SDS011;33708;49.466;11.176;2023-01-26T10:25:02;27.63;;;11.90;;
4698;SDS011;33708;49.466;11.176;2023-01-26T10:27:38;29.83;;;13.03;;
4698;SDS011;33708;49.466;11.176;2023-01-26T10:30:04;25.87;;;11.00;;
4698;SDS011;33708;49.466;11.176;2023-01-26T10:32:36;25.20;;;10.60;;
4698;SDS011;33708;49.466;11.176;2023-01-26T10:35:02;23.37;;;10.40;;
4698;SDS011;33708;49.466;11.176;2023-01-26T10:37:28;24.80;;;11.10;;
4698;SDS011;33708;49.466;11.176;2023-01-26T10:39:58;21.70;;;9.47;;
4698;SDS011;33708;49.466;11.176;2023-01-26T10:42:34;23.60;;;9.90;;
4698;SDS011;33708;49.466;11.176;2023-01-26T10:45:03;22.07;;;9.43;;
4698;SDS011;33708;49.466;11.176;2023-01-26T10:47:31;24.47;;;11.17;;
4698;SDS011;33708;49.466;11.176;2023-01-26T10:53:00;26.30;;;11.20;;
4698;SDS011;33708;49.466;11.176;2023-01-26T10:55:28;24.67;;;10.53;;
4698;SDS011;33708;49.466;11.176;2023-01-26T10:57:55;25.97;;;12.10;;
4698;SDS011;33708;49.466;11.176;2023-01-26T11:00:28;24.77;;;11.47;;
4698;SDS011;33708;49.466;11.176;2023-01-26T11:05:42;25.00;;;12.10;;
4698;SDS011;33708;49.466;11.176;2023-01-26T11:10:59;23.23;;;10.80;;
4698;SDS011;33708;49.466;11.176;2023-01-26T11:13:25;25.37;;;10.97;;
4698;SDS011;33708;49.466;11.176;2023-01-26T11:18:31;20.50;;;9.80;;
4698;SDS011;33708;49.466;11.176;2023-01-26T11:21:19;21.27;;;10.50;;
4698;SDS011;33708;49.466;11.176;2023-01-26T11:23:56;21.03;;;9.80;;
4698;SDS011;33708;49.466;11.176;2023-01-26T11:34:46;26.53;;;11.67;;
4698;SDS011;33708;49.466;11.176;2023-01-26T11:54:29;23.20;;;10.90;;
4698;SDS011;33708;49.466;11.176;2023-01-26T11:57:17;21.17;;;10.50;;
4698;SDS011;33708;49.466;11.176;2023-01-26T11:59:59;26.10;;;11.80;;
4698;SDS011;33708;49.466;11.176;2023-01-26T12:02:30;25.70;;;12.33;;
4698;SDS011;33708;49.466;11.176;2023-01-26T12:05:22;26.00;;;11.47;;
4698;SDS011;33708;49.466;11.176;2023-01-26T12:07:53;24.90;;;12.03;;
4698;SDS011;33708;49.466;11.176;2023-01-26T12:10:23;27.00;;;13.53;;
4698;SDS011;33708;49.466;11.176;2023-01-26T12:13:05;30.33;;;12.50;;
4698;SDS011;33708;49.466;11.176;2023-01-26T12:15:38;25.87;;;12.50;;
4698;SDS011;33708;49.466;11.176;2023-01-26T12:18:13;25.23;;;12.20;;
4698;SDS011;33708;49.466;11.176;2023-01-26T12:20:48;39.23;;;15.47;;
4698;SDS011;33708;49.466;11.176;2023-01-26T12:23:25;29.07;;;15.27;;
4698;SDS011;33708;49.466;11.176;2023-01-26T12:26:06;34.63;;;16.50;;
4698;SDS011;33708;49.466;11.176;2023-01-26T12:31:28;29.40;;;15.40;;
4698;SDS011;33708;49.466;11.176;2023-01-26T12:33:59;29.80;;;14.70;;
4698;SDS011;33708;49.466;11.176;2023-01-26T12:36:38;33.27;;;14.87;;
4698;SDS011;33708;49.466;11.176;2023-01-26T12:39:32;33.70;;;15.90;;
4698;SDS011;33708;49.466;11.176;2023-01-26T12:45:17;34.77;;;15.60;;
4698;SDS011;33708;49.466;11.176;2023-01-26T12:48:12;36.33;;;16.90;;
4698;SDS011;33708;49.466;11.176;2023-01-26T12:50:59;31.23;;;13.73;;
4698;SDS011;33708;49.466;11.176;2023-01-26T12:56:19;30.10;;;14.70;;
4698;SDS011;33708;49.466;11.176;2023-01-26T12:58:49;33.23;;;14.47;;
4698;SDS011;33708;49.466;11.176;2023-01-26T13:01:18;27.80;;;13.47;;
4698;SDS011;33708;49.466;11.176;2023-01-26T13:04:00;32.53;;;16.07;;
4698;SDS011;33708;49.466;11.176;2023-01-26T13:06:36;35.97;;;16.67;;
4698;SDS011;33708;49.466;11.176;2023-01-26T13:09:10;43.70;;;18.37;;
4698;SDS011;33708;49.466;11.176;2023-01-26T13:11:48;45.50;;;20.10;;
4698;SDS011;33708;49.466;11.176;2023-01-26T13:14:32;28.70;;;13.77;;
4698;SDS011;33708;49.466;11.176;2023-01-26T13:17:40;29.73;;;14.97;;
4698;SDS011;33708;49.466;11.176;2023-01-26T13:32:52;32.50;;;16.00;;
4698;SDS011;33708;49.466;11.176;2023-01-26T13:35:37;34.73;;;17.17;;
4698;SDS011;33708;49.466;11.176;2023-01-26T13:40:47;34.30;;;17.40;;
4698;SDS011;33708;49.466;11.176;2023-01-26T13:46:04;40.23;;;18.93;;
4698;SDS011;33708;49.466;11.176;2023-01-26T13:49:04;38.87;;;19.33;;
4698;SDS011;33708;49.466;11.176;2023-01-26T13:51:31;42.40;;;20.90;;
4698;SDS011;33708;49.466;11.176;2023-01-26T13:54:14;41.10;;;19.77;;
4698;SDS011;33708;49.466;11.176;2023-01-26T13:56:42;42.97;;;22.43;;
4698;SDS011;33708;49.466;11.176;2023-01-26T13:59:23;36.73;;;17.63;;
4698;SDS011;33708;49.466;11.176;2023-01-26T14:01:50;39.20;;;19.00;;
4698;SDS011;33708;49.466;11.176;2023-01-26T14:04:21;34.33;;;17.20;;
4698;SDS011;33708;49.466;11.176;2023-01-26T14:06:55;31.45;;;15.55;;
4698;SDS011;33708;49.466;11.176;2023-01-26T14:09:29;35.13;;;17.87;;
4698;SDS011;33708;49.466;11.176;2023-01-26T14:12:03;36.57;;;18.90;;
4698;SDS011;33708;49.466;11.176;2023-01-26T14:14:31;35.60;;;18.70;;
4698;SDS011;33708;49.466;11.176;2023-01-26T14:16:58;37.40;;;19.33;;
4698;SDS011;33708;49.466;11.176;2023-01-26T14:19:25;42.17;;;21.43;;
4698;SDS011;33708;49.466;11.176;2023-01-26T14:21:53;37.30;;;17.97;;
4698;SDS011;33708;49.466;11.176;2023-01-26T14:24:24;47.10;;;21.60;;
4698;SDS011;33708;49.466;11.176;2023-01-26T14:26:58;46.67;;;21.30;;
4698;SDS011;33708;49.466;11.176;2023-01-26T14:29:25;42.13;;;20.67;;
4698;SDS011;33708;49.466;11.176;2023-01-26T14:31:53;37.87;;;18.50;;
4698;SDS011;33708;49.466;11.176;2023-01-26T14:34:24;41.17;;;18.67;;
4698;SDS011;33708;49.466;11.176;2023-01-26T14:37:05;35.70;;;18.90;;
4698;SDS011;33708;49.466;11.176;2023-01-26T14:39:41;36.67;;;18.17;;
4698;SDS011;33708;49.466;11.176;2023-01-26T14:42:16;35.23;;;17.30;;
4698;SDS011;33708;49.466;11.176;2023-01-26T14:44:43;36.50;;;18.60;;
4698;SDS011;33708;49.466;11.176;2023-01-26T14:52:23;37.70;;;18.00;;
4698;SDS011;33708;49.466;11.176;2023-01-26T14:55:03;35.27;;;17.20;;
4698;SDS011;33708;49.466;11.176;2023-01-26T14:57:31;36.30;;;17.43;;
4698;SDS011;33708;49.466;11.176;2023-01-26T14:59:58;36.00;;;17.57;;
4698;SDS011;33708;49.466;11.176;2023-01-26T15:02:26;34.33;;;16.70;;
4698;SDS011;33708;49.466;11.176;2023-01-26T15:07:48;38.33;;;19.53;;
4698;SDS011;33708;49.466;11.176;2023-01-26T15:10:39;37.00;;;18.63;;
4698;SDS011;33708;49.466;11.176;2023-01-26T15:13:46;43.57;;;19.40;;
4698;SDS011;33708;49.466;11.176;2023-01-26T15:16:19;46.63;;;22.50;;
4698;SDS011;33708;49.466;11.176;2023-01-26T15:21:32;38.47;;;17.90;;
4698;SDS011;33708;49.466;11.176;2023-01-26T15:24:03;37.73;;;19.63;;
4698;SDS011;33708;49.466;11.176;2023-01-26T15:26:30;40.63;;;19.13;;
4698;SDS011;33708;49.466;11.176;2023-01-26T15:28:58;40.80;;;18.37;;
4698;SDS011;33708;49.466;11.176;2023-01-26T15:31:37;36.50;;;17.27;;
4698;SDS011;33708;49.466;11.176;2023-01-26T15:34:25;39.60;;;18.80;;
4698;SDS011;33708;49.466;11.176;2023-01-26T15:36:59;38.00;;;17.63;;
4698;SDS011;33708;49.466;11.176;2023-01-26T15:39:26;44.20;;;19.00;;
4698;SDS011;33708;49.466;11.176;2023-01-26T15:41:59;37.43;;;18.27;;
4698;SDS011;33708;49.466;11.176;2023-01-26T15:44:36;34.80;;;18.10;;
4698;SDS011;33708;49.466;11.176;2023-01-26T15:47:01;40.83;;;19.57;;
4698;SDS011;33708;49.466;11.176;2023-01-26T15:49:27;40.90;;;18.90;;
4698;SDS011;33708;49.466;11.176;2023-01-26T15:51:52;39.77;;;20.27;;
4698;SDS011;33708;49.466;11.176;2023-01-26T15:54:18;34.07;;;17.50;;
4698;SDS011;33708;49.466;11.176;2023-01-26T15:56:44;35.40;;;16.60;;
4698;SDS011;33708;49.466;11.176;2023-01-26T15:59:09;39.80;;;17.67;;
4698;SDS011;33708;49.466;11.176;2023-01-26T16:01:35;40.97;;;19.10;;
4698;SDS011;33708;49.466;11.176;2023-01-26T16:04:00;38.07;;;18.20;;
4698;SDS011;33708;49.466;11.176;2023-01-26T16:06:27;38.70;;;18.90;;
4698;SDS011;33708;49.466;11.176;2023-01-26T16:08:55;31.47;;;16.57;;
4698;SDS011;33708;49.466;11.176;2023-01-26T16:11:22;35.47;;;18.90;;
4698;SDS011;33708;49.466;11.176;2023-01-26T16:13:52;39.93;;;19.73;;
4698;SDS011;33708;49.466;11.176;2023-01-26T16:16:18;35.37;;;17.07;;